x

Mid Gulf - 180 Nm South Of Southwest Pass, La (42001) Wave Buoy

5:50am - Thu 27th Nov 2014 All times are UTC.

  • Sig Wave height 3.9ft
  • Peak Period 7s
  • Average Period 5s
  • Wind
    11mph, 16mph gusts
  • Sea Temp 75°f
  • Air Temp 67°f
  • Sea Pressure 1026.9mb

More Historic Weather Station data

Upgrade to MSW Pro to gain access to the past 30 days of data for over 8000 Wavebouys and Weather Stations around the globe.

Join Pro

Comparision Forecast

View Surf forecast
   
Thu 11/27 5:50am 4ft 7s 5s 11 16 mph 1026.9mb 75f 67f
4:50am 4.5ft 7s 6s 11 16 mph 1027.2mb 75f 68f
3:50am 4.5ft 8s 6s 9 11 mph 1027.1mb 75f 68f
2:50am 4.5ft 8s 6s 7 9 mph 1027.1mb 75f 68f
1:50am 5.5ft 8s 6s 9 13 mph 1026.5mb 75f 68f
12:50am 5ft 8s 6s 11 13 mph 1025.7mb 75f 68f
Wed 11/26 11:50pm 6ft 8s 6s 11 16 mph 1025.3mb 75f 67f
10:50pm 6ft 8s 6s 13 18 mph 1024.9mb 75f 68f
9:50pm 6.5ft 8s 6s 13 20 mph 1024.5mb 75f 68f
8:50pm 7ft 8s 6s 16 18 mph 1024.2mb 75f 67f
7:50pm 7.5ft 8s 6s 13 20 mph 1023.9mb 75f 67f
6:50pm 9ft 8s 6s 16 22 mph 1024.2mb 75f 67f
5:50pm 9ft 8s 7s 18 22 mph 1025mb 75f 67f
4:50pm 8ft 8s 6s 18 25 mph 1025.7mb 75f 67f
3:50pm 9ft 8s 6s 18 25 mph 1025.8mb 75f 67f
2:50pm 9ft 8s 6s 20 25 mph 1025.3mb 75f 66f
1:50pm 8ft 8s 6s 20 27 mph 1024.7mb 75f 66f
12:50pm 8ft 8s 6s 25 31 mph 1023.9mb 75f 66f
11:50am 8.5ft 8s 6s 25 29 mph 1022.9mb 75f 65f
10:50am 9ft 9s 6s 22 29 mph 1022.5mb 75f 65f
9:50am 9ft 9s 6s 22 29 mph 1022.2mb 75f 65f
8:50am 9ft 9s 6s 22 27 mph 1021.3mb 75f 66f
7:50am 10ft 9s 6s 25 34 mph 1021mb 75f 66f
6:50am 10.5ft 10s 7s 25 31 mph 1021mb 75f 67f
5:50am 11ft 10s 7s 25 31 mph 1021.2mb 75f 67f
4:50am 12.5ft 9s 7s 27 31 mph 1020.9mb 75f 68f
3:50am 12ft 9s 7s 29 34 mph 1020.1mb 75f 68f
2:50am 13ft 9s 7s 27 31 mph 1019.4mb 75f 67f
1:50am 14ft 9s 7s 31 36 mph 1019.3mb 75f 67f
12:50am 14.5ft 8s 7s 31 38 mph 1018.6mb 75f 67f
Tue 11/25 11:50pm 14ft 9s 7s 34 40 mph 1017.7mb 75f 67f
10:50pm 12.5ft 8s 7s 34 40 mph 1017.4mb 76f 66f
9:50pm 10ft 8s 6s 34 43 mph 1015.6mb 76f 67f
8:50pm 11ft 8s 7s 25 29 mph 1014.9mb 76f 68f
7:50pm 9ft 8s 6s 29 36 mph 1013.6mb 76f 70f
6:50pm 9ft 8s 6s 27 29 mph 1013.7mb 76f 71f
5:50pm 8ft 8s 6s 22 27 mph 1013.9mb 76f 73f
4:50pm 8ft 8s 6s 20 25 mph 1014.9mb 76f 74f
3:50pm 7.5ft 7s 6s 22 27 mph 1014.7mb 76f 74f
2:50pm 6ft 7s 5s 20 27 mph 1014.8mb 76f 74f
1:50pm 6ft 7s 5s 20 25 mph 1014.4mb 76f 74f
12:50pm 5ft 6s 5s 20 25 mph 1014.2mb 76f 74f
11:50am 5ft 6s 5s 20 25 mph 1013.5mb 76f 73f
10:50am 4.5ft 6s 5s 25 29 mph 1013.1mb 76f 73f
9:50am 3.5ft 6s 5s 18 22 mph 1013.5mb 76f 73f
8:50am 4.5ft 6s 5s 16 20 mph 1013.3mb 76f 73f
7:50am 4ft 6s 5s 11 13 mph 1013.2mb 76f 75f
6:50am 4ft 6s 5s 9 11 mph 1013.5mb 76f 76f
5:50am 3.5ft 6s 5s 7
mph
1013.5mb 76f 76f
4:50am 4ft 6s 5s 7
mph
1013.9mb 76f 76f
3:50am 3.5ft 6s 5s 7 9 mph 1013.7mb 76f 76f
2:50am 4.5ft 6s 5s 4 7 mph 1013.7mb 76f 76f
1:50am 3.5ft 6s 5s 2 4 mph 1013.3mb 76f 76f
12:50am 3.5ft 6s 5s 2
mph
1013.1mb 76f 76f
Mon 11/24 11:50pm 4.5ft 6s 5s 4 7 mph 1012.4mb 76f 76f
10:50pm 3.5ft 6s 5s 7 9 mph 1011.8mb 76f 76f
9:50pm 3.5ft 6s 5s 9 11 mph 1011.7mb 76f 77f
8:50pm 3.5ft 7s 5s 11
mph
1011.2mb 76f 77f
7:50pm 3.5ft 7s 5s 11 13 mph 1011mb 76f 77f
6:50pm 3.5ft 7s 5s 11
mph
1011.3mb 76f 77f
5:50pm 3.5ft 7s 5s 9 11 mph 1012.4mb 76f 77f
4:50pm 3.5ft 6s 5s 11
mph
1013.1mb 76f 77f
3:50pm 3.5ft 6s 5s 13 16 mph 1012.7mb 76f 77f
2:50pm 3.5ft 7s 5s 16 20 mph 1012mb 76f 77f
1:50pm 4ft 6s 5s 11 13 mph 1011.8mb 76f 77f
12:50pm 4ft 7s 5s 9
mph
1011.6mb 76f 76f
11:50am 4.5ft 7s 5s 2 4 mph 1011.3mb 76f 76f
10:50am 4ft 7s 5s 2 4 mph 1010.7mb 76f 76f
9:50am 4ft 6s 5s 7
mph
1010.1mb 76f 76f
8:50am 4ft 6s 5s 9
mph
1009.7mb 76f 76f
7:50am 4ft 7s 5s 11 13 mph 1009.6mb 76f 76f
6:50am 4ft 6s 5s 13 16 mph 1009.6mb 76f 76f
5:50am 4.5ft 6s 5s 16 18 mph 1009.6mb 76f 76f
4:50am 4.5ft 6s 5s 16 18 mph 1009.8mb 76f 76f
3:50am 5ft 6s 6s 13 16 mph 1009.9mb 76f 76f
2:50am 5ft 7s 6s 13 16 mph 1010mb 76f 76f
1:50am 5ft 6s 6s 13 16 mph 1009.5mb 76f 76f
12:50am 5.5ft 7s 6s 16 18 mph 1008.7mb 76f 76f
Sun 11/23 11:50pm 6ft 7s 6s 13 18 mph 1008.5mb 76f 76f
10:50pm 5.5ft 6s 5s 11 13 mph 1008.4mb 76f 77f
9:50pm 6ft 6s 5s 4 7 mph 1008.7mb 76f 76f
8:50pm 6ft 7s 5s 4
mph
1008.8mb 76f 74f
7:50pm 5ft 6s 5s 7 9 mph 1009.2mb 76f 73f
6:50pm 5ft 6s 5s 9 11 mph 1010.1mb 76f 72f
5:50pm 5ft 6s 5s 16 20 mph 1011.3mb 76f 73f
4:50pm 6ft 6s 5s 16 18 mph 1011.9mb 76f 77f
3:50pm 5ft 9s  -  16 18 mph 1012.1mb 76f 77f
2:50pm 6ft 5s 5s 13 16 mph 1012.4mb 76f 77f
1:50pm 6ft 6s 5s 18 22 mph 1011.1mb 76f 77f
12:50pm 6ft 6s 5s 22 27 mph 1009.6mb 76f 77f
11:50am 6ft 5s 5s 22 27 mph 1009.5mb 76f 77f
10:50am 6ft 9s 5s 25 29 mph 1009mb 76f 77f
9:50am 6ft 9s 5s 22 29 mph 1009mb 76f 76f
8:50am 5.5ft 8s 5s 22 29 mph 1008.8mb 76f 76f
7:50am 6ft 8s 5s 20 25 mph 1009.8mb 76f 76f